Time;durP1;ratioP1;P1;durP2;ratioP2;P2;SDS_P1;SDS_P2;PMS_P1;PMS_P2;Temp;Humidity;BMP_temperature;BMP_pressure;BME280_temperature;BME280_humidity;BME280_pressure;Samples;Min_cycle;Max_cycle;Signal;HPM_P1;HPM_P2
2022/03/08 00:01:56;;;;;;;24.47;15.97;;;;;;;;;;5015874;28;20461;-77
2022/03/08 00:04:24;;;;;;;22.63;15.17;;;;;;;;;;5015746;28;20955;-77
2022/03/08 00:06:50;;;;;;;23.40;14.20;;;;;;;;;;5015863;28;20961;-77
2022/03/08 00:09:16;;;;;;;22.07;13.70;;;;;;;;;;5014122;28;20838;-77
2022/03/08 00:11:42;;;;;;;25.73;14.03;;;;;;;;;;5017736;28;20474;-78
2022/03/08 00:14:08;;;;;;;20.77;12.60;;;;;;;;;;5017977;28;20422;-77
2022/03/08 00:16:34;;;;;;;18.50;13.50;;;;;;;;;;5018170;28;20486;-78
2022/03/08 00:19:00;;;;;;;21.60;14.77;;;;;;;;;;5017499;28;20922;-77
2022/03/08 00:21:26;;;;;;;20.13;15.03;;;;;;;;;;5017405;28;20399;-77
2022/03/08 00:23:52;;;;;;;26.10;15.90;;;;;;;;;;5016056;28;20923;-78
2022/03/08 00:26:18;;;;;;;19.20;13.07;;;;;;;;;;5017231;28;20914;-78
2022/03/08 00:28:45;;;;;;;22.47;13.57;;;;;;;;;;5017140;28;20757;-78
2022/03/08 00:31:11;;;;;;;20.07;12.90;;;;;;;;;;5015550;28;20446;-77
2022/03/08 00:33:37;;;;;;;19.97;14.33;;;;;;;;;;5017357;28;20424;-77
2022/03/08 00:36:03;;;;;;;23.13;14.07;;;;;;;;;;5016838;28;20486;-78
2022/03/08 00:38:29;;;;;;;23.40;13.07;;;;;;;;;;5017303;28;20985;-77
2022/03/08 00:40:55;;;;;;;20.70;13.70;;;;;;;;;;5015204;28;20454;-78
2022/03/08 00:43:21;;;;;;;21.10;14.37;;;;;;;;;;5016231;28;20527;-78
2022/03/08 00:45:47;;;;;;;19.50;13.83;;;;;;;;;;5015543;28;20416;-78
2022/03/08 00:48:13;;;;;;;18.00;12.80;;;;;;;;;;5016830;28;20455;-78
2022/03/08 00:50:40;;;;;;;20.37;13.50;;;;;;;;;;5017092;28;20399;-78
2022/03/08 00:53:06;;;;;;;22.30;13.53;;;;;;;;;;5016940;28;20419;-77
2022/03/08 00:55:33;;;;;;;21.53;14.53;;;;;;;;;;5016444;28;20454;-78
2022/03/08 00:57:59;;;;;;;23.77;13.40;;;;;;;;;;5016493;28;20545;-78
2022/03/08 01:00:27;;;;;;;16.20;12.10;;;;;;;;;;5014816;28;20447;-77
2022/03/08 01:02:53;;;;;;;19.93;12.77;;;;;;;;;;5014680;28;20994;-77
2022/03/08 01:05:19;;;;;;;24.23;14.13;;;;;;;;;;5016775;28;20458;-77
2022/03/08 01:07:46;;;;;;;19.07;14.10;;;;;;;;;;5015433;28;20415;-77
2022/03/08 01:10:15;;;;;;;19.40;14.20;;;;;;;;;;5015501;28;20442;-77
2022/03/08 01:12:41;;;;;;;20.00;12.73;;;;;;;;;;5016481;28;20430;-78
2022/03/08 01:15:08;;;;;;;20.50;14.13;;;;;;;;;;5016134;28;20497;-77
2022/03/08 01:17:34;;;;;;;19.90;12.80;;;;;;;;;;5015341;28;20451;-78
2022/03/08 01:20:00;;;;;;;21.13;14.87;;;;;;;;;;5016459;28;20412;-77
2022/03/08 01:22:26;;;;;;;18.57;12.70;;;;;;;;;;5015429;28;20467;-78
2022/03/08 01:24:53;;;;;;;23.57;13.90;;;;;;;;;;5014845;28;20427;-78
2022/03/08 01:27:19;;;;;;;21.40;14.53;;;;;;;;;;5016109;28;20422;-77
2022/03/08 01:29:45;;;;;;;16.57;12.50;;;;;;;;;;5015420;28;20460;-77
2022/03/08 01:32:11;;;;;;;20.27;12.97;;;;;;;;;;5016427;28;20411;-78
2022/03/08 01:34:37;;;;;;;17.57;12.60;;;;;;;;;;5015836;28;20423;-78
2022/03/08 01:37:04;;;;;;;16.83;12.73;;;;;;;;;;5014482;28;20505;-78
2022/03/08 01:39:30;;;;;;;17.93;13.27;;;;;;;;;;5017070;28;20411;-77
2022/03/08 01:41:56;;;;;;;22.87;14.60;;;;;;;;;;5017970;28;20426;-77
2022/03/08 01:44:22;;;;;;;20.00;13.67;;;;;;;;;;5017132;28;20501;-78
2022/03/08 01:46:48;;;;;;;20.53;13.33;;;;;;;;;;5016582;28;20426;-77
2022/03/08 01:49:14;;;;;;;20.90;12.90;;;;;;;;;;5017056;28;20416;-77
2022/03/08 01:51:43;;;;;;;19.23;13.60;;;;;;;;;;5015423;28;20466;-78
2022/03/08 01:54:09;;;;;;;17.40;12.07;;;;;;;;;;5016516;28;20439;-77
2022/03/08 01:56:35;;;;;;;22.47;13.20;;;;;;;;;;5016013;28;20458;-77
2022/03/08 01:59:02;;;;;;;20.47;13.13;;;;;;;;;;5015163;28;20408;-78
2022/03/08 02:01:28;;;;;;;23.27;14.40;;;;;;;;;;5016459;28;20419;-78
2022/03/08 02:03:54;;;;;;;19.30;12.60;;;;;;;;;;5015690;28;20434;-77
2022/03/08 02:06:20;;;;;;;17.77;12.77;;;;;;;;;;5016195;28;20502;-78
2022/03/08 02:08:46;;;;;;;22.67;14.50;;;;;;;;;;5014826;28;20415;-78
2022/03/08 02:11:13;;;;;;;18.70;13.07;;;;;;;;;;5014924;28;20430;-78
2022/03/08 02:13:39;;;;;;;18.00;13.67;;;;;;;;;;5017427;28;20438;-78
2022/03/08 02:16:05;;;;;;;17.87;12.33;;;;;;;;;;5019346;28;20470;-77
2022/03/08 02:18:32;;;;;;;19.17;12.23;;;;;;;;;;5019221;28;20410;-77
2022/03/08 02:21:07;;;;;;;22.33;12.30;;;;;;;;;;5019842;28;20474;-77
2022/03/08 02:23:33;;;;;;;17.40;12.13;;;;;;;;;;5018336;28;20442;-77
2022/03/08 02:26:00;;;;;;;22.60;13.67;;;;;;;;;;5018244;28;20414;-77
2022/03/08 02:28:26;;;;;;;21.00;13.43;;;;;;;;;;5019825;28;20407;-77
2022/03/08 02:30:53;;;;;;;20.57;14.00;;;;;;;;;;5021142;28;20880;-77
2022/03/08 02:33:19;;;;;;;20.27;13.07;;;;;;;;;;5021375;28;20423;-77
2022/03/08 02:35:45;;;;;;;18.80;13.87;;;;;;;;;;5019173;28;20411;-78
2022/03/08 02:38:12;;;;;;;18.83;13.43;;;;;;;;;;5019138;28;20839;-78
2022/03/08 02:40:39;;;;;;;26.23;15.60;;;;;;;;;;5020964;28;20404;-77
2022/03/08 02:43:06;;;;;;;25.00;15.83;;;;;;;;;;5025572;28;20450;-78
2022/03/08 02:45:32;;;;;;;23.40;13.60;;;;;;;;;;5023328;28;20451;-78
2022/03/08 02:47:58;;;;;;;27.10;16.33;;;;;;;;;;5015093;28;20515;-77
2022/03/08 02:50:25;;;;;;;21.00;14.20;;;;;;;;;;5019165;28;20907;-78
2022/03/08 02:52:52;;;;;;;24.17;14.67;;;;;;;;;;5019030;28;20455;-77
2022/03/08 02:55:20;;;;;;;24.23;14.63;;;;;;;;;;5019196;28;20438;-78
2022/03/08 02:57:46;;;;;;;22.63;14.10;;;;;;;;;;5017774;28;20525;-77
2022/03/08 03:00:13;;;;;;;26.57;16.77;;;;;;;;;;5026469;28;20422;-77
2022/03/08 03:02:39;;;;;;;21.97;13.90;;;;;;;;;;5027795;28;20403;-77
2022/03/08 03:05:06;;;;;;;20.67;15.10;;;;;;;;;;5018398;28;20422;-77
2022/03/08 03:07:32;;;;;;;23.40;14.50;;;;;;;;;;5022098;28;20400;-77
2022/03/08 03:09:58;;;;;;;26.10;15.00;;;;;;;;;;5018984;28;20418;-77
2022/03/08 03:12:24;;;;;;;23.70;15.87;;;;;;;;;;5017998;28;20419;-77
2022/03/08 03:14:50;;;;;;;21.73;14.33;;;;;;;;;;5018114;28;20510;-77
2022/03/08 03:17:17;;;;;;;22.70;14.70;;;;;;;;;;5019443;28;20458;-77
2022/03/08 03:19:43;;;;;;;18.80;13.33;;;;;;;;;;5019790;28;20423;-77
2022/03/08 03:22:09;;;;;;;24.23;15.23;;;;;;;;;;5019685;28;20407;-77
2022/03/08 03:24:36;;;;;;;23.47;15.00;;;;;;;;;;5018164;28;20435;-77
2022/03/08 03:27:02;;;;;;;19.70;14.40;;;;;;;;;;5019513;28;20411;-77
2022/03/08 03:29:28;;;;;;;21.30;15.33;;;;;;;;;;5019560;28;20418;-77
2022/03/08 03:31:54;;;;;;;23.03;15.37;;;;;;;;;;5019207;28;20419;-77
2022/03/08 03:34:20;;;;;;;38.43;18.70;;;;;;;;;;5018368;28;20427;-77
2022/03/08 03:36:46;;;;;;;30.97;17.87;;;;;;;;;;5017763;28;20463;-77
2022/03/08 03:39:12;;;;;;;24.80;16.20;;;;;;;;;;5016965;28;20416;-77
2022/03/08 03:41:38;;;;;;;26.60;18.13;;;;;;;;;;5018499;28;20415;-78
2022/03/08 03:44:04;;;;;;;22.50;16.43;;;;;;;;;;5018069;28;20459;-77
2022/03/08 03:46:30;;;;;;;27.03;17.13;;;;;;;;;;5018227;28;20427;-77
2022/03/08 03:48:56;;;;;;;24.20;15.13;;;;;;;;;;5017905;28;20482;-77
2022/03/08 03:51:22;;;;;;;20.93;15.00;;;;;;;;;;5016339;28;20420;-77
2022/03/08 03:53:49;;;;;;;22.80;15.03;;;;;;;;;;5017825;28;20903;-77
2022/03/08 03:56:15;;;;;;;23.00;16.00;;;;;;;;;;5017576;28;20942;-78
2022/03/08 03:58:41;;;;;;;26.00;16.33;;;;;;;;;;5018131;28;20407;-78
2022/03/08 04:01:07;;;;;;;26.10;16.40;;;;;;;;;;5017928;28;20483;-77
2022/03/08 04:03:33;;;;;;;22.70;15.90;;;;;;;;;;5017875;28;20427;-77
2022/03/08 04:05:59;;;;;;;28.43;16.80;;;;;;;;;;5016479;28;20411;-78
2022/03/08 04:08:25;;;;;;;25.33;16.57;;;;;;;;;;5017544;28;20415;-77
2022/03/08 04:10:52;;;;;;;24.37;16.40;;;;;;;;;;5018040;28;20435;-77
2022/03/08 04:13:18;;;;;;;27.93;15.87;;;;;;;;;;5016461;28;20423;-77
2022/03/08 04:15:46;;;;;;;21.90;16.07;;;;;;;;;;5017104;28;20415;-77
2022/03/08 04:18:12;;;;;;;27.37;16.93;;;;;;;;;;5014983;28;20828;-78
2022/03/08 04:20:38;;;;;;;26.50;15.43;;;;;;;;;;5012102;28;20772;-78
2022/03/08 04:23:04;;;;;;;25.93;15.63;;;;;;;;;;5017252;28;20424;-77
2022/03/08 04:25:31;;;;;;;26.27;15.67;;;;;;;;;;5015924;28;20528;-77
2022/03/08 04:27:57;;;;;;;23.60;14.90;;;;;;;;;;5017494;28;20485;-77
2022/03/08 04:30:23;;;;;;;26.77;15.67;;;;;;;;;;5018075;28;20414;-77
2022/03/08 04:32:52;;;;;;;28.50;15.63;;;;;;;;;;5018078;28;20815;-77
2022/03/08 04:35:19;;;;;;;25.13;15.53;;;;;;;;;;5018060;28;20403;-77
2022/03/08 04:37:46;;;;;;;28.40;17.40;;;;;;;;;;5016292;28;20546;-78
2022/03/08 04:40:12;;;;;;;23.40;16.17;;;;;;;;;;5017038;28;20414;-77
2022/03/08 04:42:39;;;;;;;23.97;15.40;;;;;;;;;;5015304;28;20510;-77
2022/03/08 04:45:05;;;;;;;24.73;16.37;;;;;;;;;;5016903;28;20403;-77
2022/03/08 04:47:34;;;;;;;24.17;14.70;;;;;;;;;;5015531;28;20414;-77
2022/03/08 04:50:00;;;;;;;25.47;16.03;;;;;;;;;;5017316;28;20399;-77
2022/03/08 04:52:26;;;;;;;23.30;14.90;;;;;;;;;;5015859;28;20400;-77
2022/03/08 04:54:52;;;;;;;22.10;15.27;;;;;;;;;;5014542;28;20466;-77
2022/03/08 04:57:18;;;;;;;24.10;16.57;;;;;;;;;;5014718;28;20463;-77
2022/03/08 04:59:44;;;;;;;24.10;15.77;;;;;;;;;;5016391;28;20399;-77
2022/03/08 05:02:10;;;;;;;26.20;16.20;;;;;;;;;;5017273;28;20468;-77
2022/03/08 05:04:36;;;;;;;27.17;16.20;;;;;;;;;;5012283;28;20514;-77
2022/03/08 05:07:02;;;;;;;31.07;18.23;;;;;;;;;;5000148;28;20412;-77
2022/03/08 05:09:28;;;;;;;24.00;15.57;;;;;;;;;;4996605;28;20491;-77
2022/03/08 05:11:55;;;;;;;26.13;17.20;;;;;;;;;;5006702;28;20423;-77
2022/03/08 05:14:21;;;;;;;27.43;16.80;;;;;;;;;;5015500;28;20443;-77
2022/03/08 05:16:47;;;;;;;30.90;18.17;;;;;;;;;;5015990;28;20446;-79
2022/03/08 05:19:13;;;;;;;29.77;16.67;;;;;;;;;;5017174;28;20410;-78
2022/03/08 05:21:39;;;;;;;26.00;15.30;;;;;;;;;;5015421;28;20431;-77
2022/03/08 05:24:05;;;;;;;22.67;15.90;;;;;;;;;;5015521;28;20473;-80
2022/03/08 05:26:31;;;;;;;26.10;15.93;;;;;;;;;;5018837;28;20486;-78
2022/03/08 05:28:57;;;;;;;29.47;16.37;;;;;;;;;;5017517;28;20446;-78
2022/03/08 05:31:23;;;;;;;26.60;15.47;;;;;;;;;;5018898;28;20438;-78
2022/03/08 05:33:49;;;;;;;26.40;15.37;;;;;;;;;;5018630;28;20510;-79
2022/03/08 05:36:15;;;;;;;20.80;13.03;;;;;;;;;;5017444;28;20885;-79
2022/03/08 05:38:41;;;;;;;23.80;16.80;;;;;;;;;;5018645;28;20923;-78
2022/03/08 05:41:07;;;;;;;22.33;14.20;;;;;;;;;;5018519;28;20888;-78
2022/03/08 05:43:34;;;;;;;26.33;16.07;;;;;;;;;;5030644;23;21023;-77
2022/03/08 05:46:00;;;;;;;23.60;15.30;;;;;;;;;;5010616;28;20434;-76
2022/03/08 05:48:26;;;;;;;28.13;13.93;;;;;;;;;;5013219;28;20496;-77
2022/03/08 05:50:52;;;;;;;20.90;13.70;;;;;;;;;;5013513;28;20388;-76
2022/03/08 05:53:18;;;;;;;22.50;13.27;;;;;;;;;;5013575;28;20414;-76
2022/03/08 05:55:44;;;;;;;23.60;14.37;;;;;;;;;;5012575;28;20926;-76
2022/03/08 05:58:11;;;;;;;24.80;14.57;;;;;;;;;;5012599;28;20443;-76
2022/03/08 06:00:37;;;;;;;20.97;14.50;;;;;;;;;;5013625;28;20400;-77
2022/03/08 06:03:03;;;;;;;26.57;15.87;;;;;;;;;;5015573;28;20533;-77
2022/03/08 06:05:29;;;;;;;22.80;16.93;;;;;;;;;;5019385;28;20506;-78
2022/03/08 06:07:55;;;;;;;21.00;12.77;;;;;;;;;;5014272;28;20412;-75
2022/03/08 06:10:21;;;;;;;25.33;15.60;;;;;;;;;;5013528;28;20411;-78
2022/03/08 06:12:47;;;;;;;22.10;13.67;;;;;;;;;;5017502;28;20418;-77
2022/03/08 06:15:13;;;;;;;23.10;13.90;;;;;;;;;;5031748;28;20446;-77
2022/03/08 06:17:39;;;;;;;22.80;14.23;;;;;;;;;;5031848;28;20451;-76
2022/03/08 06:20:06;;;;;;;19.43;13.80;;;;;;;;;;5033114;28;20399;-77
2022/03/08 06:22:32;;;;;;;21.30;13.63;;;;;;;;;;5033045;28;20409;-77
2022/03/08 06:24:58;;;;;;;18.57;13.90;;;;;;;;;;5020323;28;20510;-76
2022/03/08 06:27:24;;;;;;;25.63;14.10;;;;;;;;;;5026939;28;20422;-77
2022/03/08 06:29:51;;;;;;;27.50;15.40;;;;;;;;;;5011523;28;20435;-76
2022/03/08 06:32:18;;;;;;;20.40;13.87;;;;;;;;;;4997643;28;20780;-77
2022/03/08 06:34:45;;;;;;;21.47;13.60;;;;;;;;;;4993711;28;20511;-77
2022/03/08 06:37:12;;;;;;;18.27;12.80;;;;;;;;;;4992136;28;20548;-76
2022/03/08 06:39:38;;;;;;;19.07;13.20;;;;;;;;;;4992181;28;20416;-76
2022/03/08 06:42:04;;;;;;;21.60;14.07;;;;;;;;;;4997926;28;20404;-77
2022/03/08 06:44:31;;;;;;;18.80;13.47;;;;;;;;;;5034067;28;20447;-77
2022/03/08 06:46:58;;;;;;;21.30;13.47;;;;;;;;;;5014676;28;20415;-77
2022/03/08 06:49:24;;;;;;;23.17;13.57;;;;;;;;;;5013975;28;20411;-76
2022/03/08 06:51:50;;;;;;;23.37;14.70;;;;;;;;;;5014210;28;20900;-77
2022/03/08 06:54:16;;;;;;;20.60;14.50;;;;;;;;;;5013744;28;20441;-77
2022/03/08 06:56:42;;;;;;;22.40;12.50;;;;;;;;;;5013083;28;20455;-77
2022/03/08 06:59:08;;;;;;;16.70;12.20;;;;;;;;;;5029881;28;20816;-76
2022/03/08 07:01:35;;;;;;;25.83;14.77;;;;;;;;;;5053488;28;20498;-76
2022/03/08 07:04:01;;;;;;;19.50;13.00;;;;;;;;;;5030005;28;20821;-76
2022/03/08 07:06:27;;;;;;;20.13;13.57;;;;;;;;;;5021816;28;20424;-77
2022/03/08 07:08:53;;;;;;;18.07;12.83;;;;;;;;;;5036633;28;20164;-76
2022/03/08 07:11:20;;;;;;;20.43;12.17;;;;;;;;;;5036533;28;20395;-76
2022/03/08 07:13:46;;;;;;;18.97;12.53;;;;;;;;;;5036817;28;20414;-76
2022/03/08 07:16:12;;;;;;;20.53;11.70;;;;;;;;;;5036383;28;20889;-77
2022/03/08 07:18:38;;;;;;;19.10;12.67;;;;;;;;;;5036282;28;20402;-77
2022/03/08 07:21:04;;;;;;;17.57;12.00;;;;;;;;;;5036330;28;20813;-77
2022/03/08 07:23:31;;;;;;;18.83;11.70;;;;;;;;;;5027776;28;20434;-77
2022/03/08 07:25:57;;;;;;;17.17;11.80;;;;;;;;;;5016362;28;20407;-77
2022/03/08 07:28:23;;;;;;;15.90;11.83;;;;;;;;;;5014768;28;20408;-75
2022/03/08 07:30:49;;;;;;;19.43;12.93;;;;;;;;;;5016210;28;20425;-77
2022/03/08 07:33:15;;;;;;;16.87;11.90;;;;;;;;;;5016286;28;20399;-77
2022/03/08 07:35:41;;;;;;;15.40;11.57;;;;;;;;;;5016311;28;20408;-77
2022/03/08 07:38:08;;;;;;;17.90;10.93;;;;;;;;;;5015781;28;20451;-77
2022/03/08 07:40:34;;;;;;;15.50;11.30;;;;;;;;;;5016373;28;20499;-76
2022/03/08 07:43:02;;;;;;;19.10;12.90;;;;;;;;;;5015917;28;20408;-76
2022/03/08 07:45:28;;;;;;;14.70;11.97;;;;;;;;;;5015592;28;20904;-76
2022/03/08 07:47:54;;;;;;;21.45;13.50;;;;;;;;;;5014766;28;20411;-77
2022/03/08 07:50:22;;;;;;;16.50;13.20;;;;;;;;;;5002915;28;20417;-78
2022/03/08 07:52:48;;;;;;;18.77;13.40;;;;;;;;;;5036319;28;20406;-77
2022/03/08 07:55:14;;;;;;;18.23;12.90;;;;;;;;;;5041911;28;20439;-77
2022/03/08 07:57:40;;;;;;;16.80;11.50;;;;;;;;;;5015188;28;20852;-75
2022/03/08 08:00:07;;;;;;;17.13;12.27;;;;;;;;;;5011156;28;20477;-75
2022/03/08 08:02:33;;;;;;;17.23;11.80;;;;;;;;;;5013264;28;20426;-75
2022/03/08 08:04:59;;;;;;;17.57;11.80;;;;;;;;;;5008638;28;21598;-75
2022/03/08 08:07:26;;;;;;;20.20;12.73;;;;;;;;;;5013723;28;20918;-76
2022/03/08 08:09:52;;;;;;;17.43;11.37;;;;;;;;;;5013392;28;20414;-75
2022/03/08 08:12:18;;;;;;;21.47;13.87;;;;;;;;;;5014711;28;20415;-76
2022/03/08 08:14:44;;;;;;;14.97;11.83;;;;;;;;;;5014411;28;20796;-75
2022/03/08 08:17:10;;;;;;;14.50;11.23;;;;;;;;;;5011648;28;20512;-75
2022/03/08 08:19:36;;;;;;;14.73;10.67;;;;;;;;;;5013471;28;20450;-76
2022/03/08 08:22:02;;;;;;;15.30;11.20;;;;;;;;;;5012546;28;20427;-76
2022/03/08 08:24:28;;;;;;;17.87;11.20;;;;;;;;;;5009591;28;20539;-76
2022/03/08 08:26:55;;;;;;;15.07;10.70;;;;;;;;;;5006056;28;20438;-76
2022/03/08 08:29:21;;;;;;;19.17;11.70;;;;;;;;;;5007184;28;20419;-75
2022/03/08 08:31:47;;;;;;;17.07;11.03;;;;;;;;;;5008782;28;20427;-75
2022/03/08 08:34:13;;;;;;;17.47;10.87;;;;;;;;;;5010024;28;20810;-75
2022/03/08 08:36:39;;;;;;;15.70;10.80;;;;;;;;;;5012025;28;20863;-75
2022/03/08 08:39:05;;;;;;;16.87;11.10;;;;;;;;;;5010822;28;20426;-74
2022/03/08 08:41:31;;;;;;;16.50;10.03;;;;;;;;;;5011671;28;20458;-76
2022/03/08 08:43:57;;;;;;;14.73;11.40;;;;;;;;;;5009612;28;20513;-73
2022/03/08 08:46:23;;;;;;;17.93;10.40;;;;;;;;;;5009468;28;20420;-76
2022/03/08 08:48:49;;;;;;;16.33;10.23;;;;;;;;;;5009203;28;20423;-76
2022/03/08 08:51:15;;;;;;;16.43;10.70;;;;;;;;;;5009400;28;20423;-74
2022/03/08 08:53:41;;;;;;;13.83;9.83;;;;;;;;;;5010373;28;20546;-76
2022/03/08 08:56:07;;;;;;;16.10;10.37;;;;;;;;;;5015500;28;20415;-75
2022/03/08 08:58:34;;;;;;;16.13;10.20;;;;;;;;;;5011018;28;20477;-74
2022/03/08 09:01:00;;;;;;;29.23;15.30;;;;;;;;;;5009586;28;21720;-77
2022/03/08 09:03:26;;;;;;;15.67;10.30;;;;;;;;;;5006917;28;20974;-74
2022/03/08 09:05:52;;;;;;;12.93;9.48;;;;;;;;;;5011405;28;20434;-74
2022/03/08 09:08:24;;;;;;;18.43;9.27;;;;;;;;;;5012336;28;20181;-75
2022/03/08 09:10:51;;;;;;;11.23;9.03;;;;;;;;;;5007990;28;20407;-74
2022/03/08 09:13:17;;;;;;;13.27;8.50;;;;;;;;;;5008447;28;20446;-75
2022/03/08 09:15:43;;;;;;;13.07;8.80;;;;;;;;;;5010914;28;20497;-76
2022/03/08 09:18:10;;;;;;;11.10;8.07;;;;;;;;;;5011728;28;20503;-77
2022/03/08 09:20:36;;;;;;;12.93;8.63;;;;;;;;;;5008733;28;20495;-76
2022/03/08 09:23:02;;;;;;;15.33;9.70;;;;;;;;;;5006103;28;21389;-75
2022/03/08 09:25:28;;;;;;;14.90;8.93;;;;;;;;;;5011206;28;20775;-75
2022/03/08 09:27:54;;;;;;;11.83;8.70;;;;;;;;;;5006173;28;20510;-76
2022/03/08 09:30:20;;;;;;;15.53;8.73;;;;;;;;;;5011759;28;20423;-77
2022/03/08 09:32:46;;;;;;;13.50;8.40;;;;;;;;;;5004953;28;20442;-76
2022/03/08 09:35:12;;;;;;;13.50;8.50;;;;;;;;;;5012759;28;20442;-76
2022/03/08 09:37:38;;;;;;;12.43;8.80;;;;;;;;;;5012154;28;20481;-76
2022/03/08 09:40:05;;;;;;;10.57;7.30;;;;;;;;;;5010613;28;20447;-76
2022/03/08 09:42:31;;;;;;;9.80;7.70;;;;;;;;;;5012796;28;20419;-77
2022/03/08 09:44:58;;;;;;;10.60;7.27;;;;;;;;;;5009833;28;20443;-76
2022/03/08 09:47:24;;;;;;;8.80;6.00;;;;;;;;;;5012363;28;20434;-76
2022/03/08 09:49:50;;;;;;;9.90;6.87;;;;;;;;;;5023370;28;20419;-77
2022/03/08 09:52:19;;;;;;;8.73;6.33;;;;;;;;;;5007354;28;20980;-76
2022/03/08 09:54:45;;;;;;;9.23;6.60;;;;;;;;;;5012169;28;20435;-76
2022/03/08 09:57:18;;;;;;;8.97;5.67;;;;;;;;;;5003969;28;20524;-76
2022/03/08 09:59:44;;;;;;;8.13;5.50;;;;;;;;;;5010898;28;20412;-77
2022/03/08 10:02:14;;;;;;;7.90;5.50;;;;;;;;;;5003242;28;20961;-77
2022/03/08 10:04:40;;;;;;;8.00;5.43;;;;;;;;;;5009587;28;20450;-77
2022/03/08 10:07:11;;;;;;;24.07;13.40;;;;;;;;;;5011808;28;20199;-77
2022/03/08 10:09:37;;;;;;;9.00;6.00;;;;;;;;;;5011304;28;20419;-76
2022/03/08 10:12:14;;;;;;;8.60;6.07;;;;;;;;;;5009210;28;20493;-77
2022/03/08 10:14:40;;;;;;;6.37;5.33;;;;;;;;;;5014339;28;20951;-77
2022/03/08 10:17:10;;;;;;;8.70;6.13;;;;;;;;;;5010604;28;20502;-76
2022/03/08 10:19:46;;;;;;;9.33;5.80;;;;;;;;;;5007236;28;20457;-77
2022/03/08 10:22:26;;;;;;;7.63;5.60;;;;;;;;;;5011226;28;20423;-76
2022/03/08 10:24:52;;;;;;;7.83;7.03;;;;;;;;;;5012277;28;20447;-77
2022/03/08 10:27:19;;;;;;;7.90;5.70;;;;;;;;;;5017685;28;20459;-76
2022/03/08 10:29:49;;;;;;;8.40;6.37;;;;;;;;;;5011240;28;20419;-76
2022/03/08 10:32:21;;;;;;;9.87;5.30;;;;;;;;;;5007915;28;20427;-77
2022/03/08 10:34:49;;;;;;;7.75;5.30;;;;;;;;;;5016422;28;20788;-77
2022/03/08 10:37:19;;;;;;;7.70;4.83;;;;;;;;;;5016518;28;20574;-77
2022/03/08 10:40:00;;;;;;;9.03;5.23;;;;;;;;;;5017073;28;20420;-77
2022/03/08 10:42:28;;;;;;;6.90;5.00;;;;;;;;;;5017216;28;20407;-76
2022/03/08 10:45:05;;;;;;;6.30;4.30;;;;;;;;;;5016409;28;20482;-76
2022/03/08 10:47:40;;;;;;;7.13;5.20;;;;;;;;;;5012292;28;20438;-77
2022/03/08 10:50:06;;;;;;;8.50;5.50;;;;;;;;;;5014439;28;20411;-77
2022/03/08 10:52:34;;;;;;;7.33;5.30;;;;;;;;;;5016157;28;20407;-77
2022/03/08 10:55:13;;;;;;;8.43;4.70;;;;;;;;;;5015185;28;20581;-77
2022/03/08 10:57:40;;;;;;;9.98;5.28;;;;;;;;;;5005831;28;20525;-76
2022/03/08 11:00:11;;;;;;;6.77;4.80;;;;;;;;;;5015777;28;20191;-76
2022/03/08 11:02:46;;;;;;;7.10;4.87;;;;;;;;;;5023017;28;20406;-76
2022/03/08 11:05:12;;;;;;;5.55;4.30;;;;;;;;;;5018852;28;20506;-76
2022/03/08 11:07:39;;;;;;;8.33;5.93;;;;;;;;;;5013239;28;20169;-76
2022/03/08 11:10:06;;;;;;;6.20;4.57;;;;;;;;;;5008403;28;20434;-76
2022/03/08 11:12:32;;;;;;;7.60;4.60;;;;;;;;;;5006476;28;20423;-76
2022/03/08 11:14:58;;;;;;;6.70;4.70;;;;;;;;;;5005260;28;20434;-75
2022/03/08 11:17:24;;;;;;;5.80;4.10;;;;;;;;;;5007948;28;20441;-77
2022/03/08 11:19:50;;;;;;;7.20;4.43;;;;;;;;;;5008742;28;20563;-76
2022/03/08 11:22:23;;;;;;;8.68;5.28;;;;;;;;;;5006489;28;20092;-75
2022/03/08 11:24:49;;;;;;;6.60;4.60;;;;;;;;;;5007209;28;20283;-76
2022/03/08 11:27:16;;;;;;;7.57;4.50;;;;;;;;;;5012917;28;20989;-76
2022/03/08 11:29:42;;;;;;;5.33;4.10;;;;;;;;;;5002692;28;20424;-77
2022/03/08 11:32:13;;;;;;;6.50;4.00;;;;;;;;;;5011437;28;20886;-76
2022/03/08 11:34:42;;;;;;;5.70;4.37;;;;;;;;;;5012201;28;20196;-76
2022/03/08 11:37:11;;;;;;;6.40;5.00;;;;;;;;;;5014122;28;20471;-76
2022/03/08 11:39:39;;;;;;;6.40;3.57;;;;;;;;;;5014138;28;20494;-76
2022/03/08 11:42:18;;;;;;;7.17;4.17;;;;;;;;;;5014690;28;20443;-78
2022/03/08 11:44:55;;;;;;;6.10;4.43;;;;;;;;;;5012720;28;20466;-77
2022/03/08 11:47:21;;;;;;;7.50;5.17;;;;;;;;;;5011349;28;20915;-76
2022/03/08 11:49:57;;;;;;;9.23;4.93;;;;;;;;;;5014868;28;20426;-77
2022/03/08 11:52:30;;;;;;;6.53;4.20;;;;;;;;;;5013123;28;20407;-76
2022/03/08 11:54:58;;;;;;;9.57;5.13;;;;;;;;;;5009050;28;21200;-75
2022/03/08 11:57:42;;;;;;;6.63;4.97;;;;;;;;;;5007974;28;20459;-76
2022/03/08 12:00:28;;;;;;;4.83;3.83;;;;;;;;;;5014913;28;20419;-76
2022/03/08 12:02:55;;;;;;;6.43;4.73;;;;;;;;;;5018266;28;20439;-76
2022/03/08 12:05:40;;;;;;;5.53;4.70;;;;;;;;;;5014694;28;20470;-76
2022/03/08 12:08:25;;;;;;;7.60;5.07;;;;;;;;;;5013491;28;20466;-77
2022/03/08 12:10:57;;;;;;;4.60;3.63;;;;;;;;;;5014565;28;20422;-77
2022/03/08 12:13:24;;;;;;;7.00;5.40;;;;;;;;;;5012726;28;20439;-77
2022/03/08 12:16:08;;;;;;;8.60;4.10;;;;;;;;;;5012404;28;20503;-77
2022/03/08 12:18:43;;;;;;;7.40;5.33;;;;;;;;;;5009293;28;20420;-77
2022/03/08 12:21:15;;;;;;;8.37;4.93;;;;;;;;;;5012299;28;20430;-77
2022/03/08 12:23:57;;;;;;;9.37;4.30;;;;;;;;;;5014293;28;20430;-77
2022/03/08 12:26:26;;;;;;;7.67;5.30;;;;;;;;;;5013077;28;20438;-77
2022/03/08 12:29:11;;;;;;;5.83;4.40;;;;;;;;;;5010417;28;20415;-76
2022/03/08 12:34:36;;;;;;;7.50;5.50;;;;;;;;;;5011825;28;20443;-77
2022/03/08 12:37:34;;;;;;;6.70;4.90;;;;;;;;;;5015662;28;20962;-77
2022/03/08 12:40:03;;;;;;;13.53;7.70;;;;;;;;;;4995895;28;20470;-77
2022/03/08 12:42:30;;;;;;;7.40;5.40;;;;;;;;;;5011905;28;20442;-76
2022/03/08 12:44:56;;;;;;;6.93;5.33;;;;;;;;;;5019235;28;20501;-77
2022/03/08 12:47:22;;;;;;;5.03;4.20;;;;;;;;;;5016792;28;20788;-77
2022/03/08 12:49:49;;;;;;;6.33;5.30;;;;;;;;;;5012139;28;20427;-77
2022/03/08 12:52:16;;;;;;;8.20;4.10;;;;;;;;;;5015030;28;20937;-75
2022/03/08 12:54:43;;;;;;;10.53;4.33;;;;;;;;;;5014269;28;20439;-78
2022/03/08 12:57:13;;;;;;;5.80;4.37;;;;;;;;;;5013142;28;20562;-77
2022/03/08 12:59:43;;;;;;;6.27;4.80;;;;;;;;;;5013628;28;20683;-77
2022/03/08 13:02:10;;;;;;;6.33;3.97;;;;;;;;;;5013070;28;20904;-77
2022/03/08 13:04:36;;;;;;;7.60;4.80;;;;;;;;;;5013973;28;21209;-76
2022/03/08 13:07:06;;;;;;;12.50;5.00;;;;;;;;;;5012424;28;20427;-77
2022/03/08 13:09:53;;;;;;;7.23;5.20;;;;;;;;;;5014063;28;20427;-77
2022/03/08 13:12:20;;;;;;;6.00;5.30;;;;;;;;;;5011665;28;20689;-76
2022/03/08 13:15:05;;;;;;;6.57;5.63;;;;;;;;;;5012581;28;20447;-77
2022/03/08 13:17:31;;;;;;;6.97;4.97;;;;;;;;;;5012195;28;20461;-76
2022/03/08 13:19:57;;;;;;;6.77;5.60;;;;;;;;;;5000902;28;20817;-77
2022/03/08 13:22:24;;;;;;;13.03;5.43;;;;;;;;;;5012021;28;20423;-76
2022/03/08 13:25:09;;;;;;;8.13;5.93;;;;;;;;;;5012741;28;20444;-77
2022/03/08 13:27:50;;;;;;;6.77;5.77;;;;;;;;;;5013083;28;20447;-76
2022/03/08 13:30:21;;;;;;;10.10;5.40;;;;;;;;;;5009988;28;20431;-77
2022/03/08 13:32:47;;;;;;;8.60;5.70;;;;;;;;;;5007856;28;20428;-77
2022/03/08 13:35:14;;;;;;;7.93;5.90;;;;;;;;;;5012628;28;20446;-77
2022/03/08 13:37:47;;;;;;;5.97;5.10;;;;;;;;;;5013549;28;20519;-77
2022/03/08 13:40:29;;;;;;;10.83;6.60;;;;;;;;;;5012503;28;20415;-77
2022/03/08 13:42:58;;;;;;;9.87;6.03;;;;;;;;;;5009536;28;20837;-77
2022/03/08 13:45:25;;;;;;;8.30;6.17;;;;;;;;;;5014890;28;20460;-76
2022/03/08 13:47:54;;;;;;;6.77;5.17;;;;;;;;;;5006553;28;20942;-77
2022/03/08 13:50:21;;;;;;;11.97;5.70;;;;;;;;;;5011997;28;20473;-78
2022/03/08 13:53:05;;;;;;;9.63;5.45;;;;;;;;;;5002250;28;20441;-77
2022/03/08 13:55:31;;;;;;;7.90;6.00;;;;;;;;;;5006375;28;20502;-76
2022/03/08 13:58:01;;;;;;;9.03;6.00;;;;;;;;;;5019391;28;20568;-78
2022/03/08 14:00:32;;;;;;;9.13;5.90;;;;;;;;;;5017157;28;20487;-77
2022/03/08 14:02:59;;;;;;;7.77;5.83;;;;;;;;;;5012782;28;20503;-77
2022/03/08 14:05:25;;;;;;;5.50;4.57;;;;;;;;;;5010194;28;20439;-77
2022/03/08 14:07:58;;;;;;;8.13;5.00;;;;;;;;;;5008506;28;20414;-78
2022/03/08 14:10:24;;;;;;;6.67;4.70;;;;;;;;;;5013989;28;20831;-77
2022/03/08 14:12:51;;;;;;;6.13;4.60;;;;;;;;;;5014281;28;20983;-77
2022/03/08 14:15:17;;;;;;;7.90;4.50;;;;;;;;;;5015523;28;20439;-77
2022/03/08 14:17:44;;;;;;;6.07;3.97;;;;;;;;;;5010232;28;20451;-77
2022/03/08 14:20:14;;;;;;;8.23;4.27;;;;;;;;;;5006977;28;21068;-78
2022/03/08 14:22:59;;;;;;;6.67;4.63;;;;;;;;;;5013191;28;20403;-77
2022/03/08 14:25:25;;;;;;;6.77;4.93;;;;;;;;;;5012798;28;20943;-77
2022/03/08 14:27:52;;;;;;;7.60;4.70;;;;;;;;;;5013152;28;20936;-77
2022/03/08 14:30:26;;;;;;;8.83;4.40;;;;;;;;;;5010290;28;20418;-77
2022/03/08 14:32:52;;;;;;;5.20;4.23;;;;;;;;;;5007535;28;20403;-76